Time;durP1;ratioP1;P1;durP2;ratioP2;P2;SDS_P1;SDS_P2;PMS_P1;PMS_P2;Temp;Humidity;BMP_temperature;BMP_pressure;BME280_temperature;BME280_humidity;BME280_pressure;Samples;Min_cycle;Max_cycle;Signal;HPM_P1;HPM_P2
2023/09/22 00:00:59;;;;;;;2.53;1.80;;;;;;;;;;7301909;19;141936;-75
2023/09/22 00:03:27;;;;;;;2.58;1.73;;;;;;;;;;7301045;19;142071;-75
2023/09/22 00:05:54;;;;;;;2.53;1.70;;;;;;;;;;7302598;19;140825;-74
2023/09/22 00:08:23;;;;;;;3.22;2.10;;;;;;;;;;7301602;19;141112;-75
2023/09/22 00:10:51;;;;;;;2.53;1.73;;;;;;;;;;7300222;19;141245;-75
2023/09/22 00:13:18;;;;;;;2.70;1.75;;;;;;;;;;7301717;19;141459;-75
2023/09/22 00:15:45;;;;;;;2.20;1.70;;;;;;;;;;7301215;19;141036;-75
2023/09/22 00:18:12;;;;;;;2.75;2.00;;;;;;;;;;7301406;19;140594;-75
2023/09/22 00:20:39;;;;;;;2.50;1.50;;;;;;;;;;7301592;19;141546;-75
2023/09/22 00:23:06;;;;;;;2.50;1.70;;;;;;;;;;7301273;19;142791;-76
2023/09/22 00:25:33;;;;;;;2.38;1.75;;;;;;;;;;7301774;19;141131;-76
2023/09/22 00:28:00;;;;;;;2.60;1.77;;;;;;;;;;7300938;19;141168;-75
2023/09/22 00:30:28;;;;;;;2.40;1.70;;;;;;;;;;7300691;19;141366;-76
2023/09/22 00:32:55;;;;;;;2.50;1.60;;;;;;;;;;7301135;19;142212;-77
2023/09/22 00:35:22;;;;;;;2.53;1.60;;;;;;;;;;7301800;19;140732;-76
2023/09/22 00:37:50;;;;;;;2.42;1.70;;;;;;;;;;7301576;19;140735;-76
2023/09/22 00:40:17;;;;;;;2.70;1.90;;;;;;;;;;7300437;19;142023;-74
2023/09/22 00:42:45;;;;;;;2.60;1.55;;;;;;;;;;7301128;19;142380;-75
2023/09/22 00:45:14;;;;;;;2.05;1.42;;;;;;;;;;7300495;19;140396;-75
2023/09/22 00:47:41;;;;;;;2.73;1.60;;;;;;;;;;7301272;19;140543;-74
2023/09/22 00:50:11;;;;;;;2.23;1.57;;;;;;;;;;7300157;19;141115;-75
2023/09/22 00:52:39;;;;;;;1.98;1.50;;;;;;;;;;7300283;19;142341;-75
2023/09/22 00:55:07;;;;;;;2.50;1.50;;;;;;;;;;7300471;19;140535;-75
2023/09/22 00:57:34;;;;;;;1.92;1.40;;;;;;;;;;7299948;19;140756;-75
2023/09/22 01:00:03;;;;;;;2.25;1.60;;;;;;;;;;7299577;19;141079;-75
2023/09/22 01:02:31;;;;;;;1.90;1.40;;;;;;;;;;7300547;19;141994;-74
2023/09/22 01:04:58;;;;;;;1.98;1.33;;;;;;;;;;7300745;19;140789;-75
2023/09/22 01:07:25;;;;;;;1.80;1.40;;;;;;;;;;7298783;19;140497;-75
2023/09/22 01:09:52;;;;;;;1.70;1.48;;;;;;;;;;7299307;19;141419;-75
2023/09/22 01:12:20;;;;;;;2.00;1.40;;;;;;;;;;7298268;19;142451;-75
2023/09/22 01:14:47;;;;;;;2.00;1.50;;;;;;;;;;7300179;19;140924;-75
2023/09/22 01:17:14;;;;;;;1.85;1.38;;;;;;;;;;7300381;19;140768;-75
2023/09/22 01:19:42;;;;;;;1.95;1.40;;;;;;;;;;7299542;19;142254;-75
2023/09/22 01:22:12;;;;;;;2.78;1.48;;;;;;;;;;7299638;19;141979;-75
2023/09/22 01:24:42;;;;;;;2.17;1.50;;;;;;;;;;7299018;19;140704;-76
2023/09/22 01:27:09;;;;;;;1.53;1.30;;;;;;;;;;7297701;19;140672;-76
2023/09/22 01:29:36;;;;;;;2.40;1.35;;;;;;;;;;7298520;19;141634;-76
2023/09/22 01:32:03;;;;;;;1.70;1.47;;;;;;;;;;7297614;19;141927;-75
2023/09/22 01:34:30;;;;;;;1.47;1.33;;;;;;;;;;7299765;19;140688;-75
2023/09/22 01:36:58;;;;;;;1.73;1.27;;;;;;;;;;7299535;19;140907;-75
2023/09/22 01:39:26;;;;;;;1.80;1.30;;;;;;;;;;7298836;19;141117;-75
2023/09/22 01:41:53;;;;;;;2.40;1.40;;;;;;;;;;7298788;19;142460;-75
2023/09/22 01:44:20;;;;;;;1.77;1.30;;;;;;;;;;7299360;19;140612;-75
2023/09/22 01:46:47;;;;;;;1.70;1.23;;;;;;;;;;7299668;19;140799;-75
2023/09/22 01:49:14;;;;;;;1.85;1.20;;;;;;;;;;7298609;19;141982;-75
2023/09/22 01:51:42;;;;;;;1.40;1.10;;;;;;;;;;7298674;19;141147;-76
2023/09/22 01:54:09;;;;;;;1.98;1.23;;;;;;;;;;7297882;19;141002;-75
2023/09/22 01:56:36;;;;;;;1.60;1.20;;;;;;;;;;7298339;19;140558;-75
2023/09/22 01:59:03;;;;;;;2.10;1.27;;;;;;;;;;7298936;19;141631;-75
2023/09/22 02:01:30;;;;;;;1.50;1.20;;;;;;;;;;7296728;19;142425;-76
2023/09/22 02:03:57;;;;;;;1.40;1.20;;;;;;;;;;7299282;19;140556;-76
2023/09/22 02:06:25;;;;;;;1.52;1.10;;;;;;;;;;7298458;19;140504;-76
2023/09/22 02:08:52;;;;;;;1.60;1.20;;;;;;;;;;7297349;19;141104;-76
2023/09/22 02:11:19;;;;;;;1.70;1.10;;;;;;;;;;7297741;19;142679;-76
2023/09/22 02:13:46;;;;;;;1.48;1.10;;;;;;;;;;7298619;19;140530;-75
2023/09/22 02:16:13;;;;;;;1.98;1.08;;;;;;;;;;7297982;19;140805;-75
2023/09/22 02:18:40;;;;;;;1.70;1.15;;;;;;;;;;7297214;19;141228;-76
2023/09/22 02:21:08;;;;;;;1.42;1.00;;;;;;;;;;7297811;19;142071;-75
2023/09/22 02:23:35;;;;;;;1.37;1.00;;;;;;;;;;7296354;19;141009;-75
2023/09/22 02:26:09;;;;;;;1.40;1.10;;;;;;;;;;7297520;19;140481;-75
2023/09/22 02:28:36;;;;;;;1.60;1.10;;;;;;;;;;7296791;19;140968;-75
2023/09/22 02:31:03;;;;;;;1.47;1.20;;;;;;;;;;7297738;19;142688;-75
2023/09/22 02:33:30;;;;;;;1.80;1.00;;;;;;;;;;7297596;19;140938;-76
2023/09/22 02:35:59;;;;;;;1.13;0.93;;;;;;;;;;7298069;19;140784;-77
2023/09/22 02:38:26;;;;;;;1.00;0.90;;;;;;;;;;7297579;19;141140;-77
2023/09/22 02:40:53;;;;;;;1.67;0.93;;;;;;;;;;7304418;19;141241;-76
2023/09/22 02:43:20;;;;;;;1.87;1.00;;;;;;;;;;7304219;19;140717;-77
2023/09/22 02:45:47;;;;;;;1.42;1.00;;;;;;;;;;7304612;19;140853;-76
2023/09/22 02:48:15;;;;;;;1.50;0.98;;;;;;;;;;7304648;19;141936;-77
2023/09/22 02:50:42;;;;;;;1.50;1.08;;;;;;;;;;7303492;19;142408;-77
2023/09/22 02:53:09;;;;;;;1.50;1.00;;;;;;;;;;7304277;19;140677;-77
2023/09/22 02:55:40;;;;;;;1.00;0.90;;;;;;;;;;7303695;19;140424;-76
2023/09/22 02:58:08;;;;;;;1.27;0.90;;;;;;;;;;7303425;19;141989;-75
2023/09/22 03:00:36;;;;;;;1.10;1.00;;;;;;;;;;7302703;19;142551;-75
2023/09/22 03:03:03;;;;;;;1.00;0.88;;;;;;;;;;7304065;19;140472;-75
2023/09/22 03:05:31;;;;;;;1.30;0.90;;;;;;;;;;7304035;19;140752;-75
2023/09/22 03:07:58;;;;;;;1.15;0.90;;;;;;;;;;7301966;19;142456;-75
2023/09/22 03:10:25;;;;;;;1.25;1.00;;;;;;;;;;7302995;19;140883;-74
2023/09/22 03:12:53;;;;;;;1.65;1.00;;;;;;;;;;7303209;19;140458;-75
2023/09/22 03:15:20;;;;;;;0.90;0.73;;;;;;;;;;7304209;19;140840;-75
2023/09/22 03:17:47;;;;;;;1.47;1.00;;;;;;;;;;7302420;19;140935;-75
2023/09/22 03:20:16;;;;;;;1.40;0.93;;;;;;;;;;7303471;19;142748;-75
2023/09/22 03:22:44;;;;;;;1.10;0.80;;;;;;;;;;7300724;19;140588;-77
2023/09/22 03:25:12;;;;;;;1.27;0.90;;;;;;;;;;7302277;19;140629;-75
2023/09/22 03:27:39;;;;;;;1.50;1.00;;;;;;;;;;7301273;19;143013;-74
2023/09/22 03:30:08;;;;;;;1.30;1.00;;;;;;;;;;7303553;19;141817;-75
2023/09/22 03:32:35;;;;;;;1.02;0.90;;;;;;;;;;7302226;19;140648;-75
2023/09/22 03:35:07;;;;;;;1.02;0.88;;;;;;;;;;7303647;19;140988;-75
2023/09/22 03:37:34;;;;;;;0.90;0.70;;;;;;;;;;7305096;19;140918;-75
2023/09/22 03:40:12;;;;;;;0.82;0.80;;;;;;;;;;7301700;19;142843;-77
2023/09/22 03:42:44;;;;;;;1.30;0.88;;;;;;;;;;7303264;19;140847;-77
2023/09/22 03:45:12;;;;;;;0.88;0.80;;;;;;;;;;7302246;19;140622;-75
2023/09/22 03:47:39;;;;;;;1.20;0.80;;;;;;;;;;7303338;19;140838;-76
2023/09/22 03:50:07;;;;;;;1.00;0.80;;;;;;;;;;7301474;19;142198;-76
2023/09/22 03:52:36;;;;;;;1.65;0.90;;;;;;;;;;7302717;19;140763;-76
2023/09/22 03:55:04;;;;;;;0.93;0.73;;;;;;;;;;7301498;19;140824;-76
2023/09/22 03:57:31;;;;;;;0.90;0.80;;;;;;;;;;7302312;19;141646;-75
2023/09/22 03:59:58;;;;;;;0.83;0.70;;;;;;;;;;7302777;19;141193;-78
2023/09/22 04:02:27;;;;;;;0.82;0.80;;;;;;;;;;7301698;19;140872;-78
2023/09/22 04:04:54;;;;;;;1.00;0.80;;;;;;;;;;7301076;19;140483;-76
2023/09/22 04:07:22;;;;;;;1.48;0.93;;;;;;;;;;7301466;19;141988;-77
2023/09/22 04:09:49;;;;;;;0.68;0.68;;;;;;;;;;7301707;19;142036;-77
2023/09/22 04:12:16;;;;;;;0.73;0.70;;;;;;;;;;7302470;19;140829;-77
2023/09/22 04:14:43;;;;;;;1.27;0.73;;;;;;;;;;7300867;19;140832;-77
2023/09/22 04:17:10;;;;;;;0.90;0.73;;;;;;;;;;7300534;19;142392;-75
2023/09/22 04:19:40;;;;;;;0.75;0.70;;;;;;;;;;7301374;19;140937;-76
2023/09/22 04:22:08;;;;;;;0.87;0.70;;;;;;;;;;7312227;19;140561;-77
2023/09/22 04:24:37;;;;;;;1.23;0.70;;;;;;;;;;7308693;19;140595;-76
2023/09/22 04:27:08;;;;;;;0.93;0.70;;;;;;;;;;7310511;19;141208;-76
2023/09/22 04:29:35;;;;;;;0.70;0.70;;;;;;;;;;7299665;19;141877;-77
2023/09/22 04:32:03;;;;;;;0.93;0.70;;;;;;;;;;7301286;19;140890;-77
2023/09/22 04:34:30;;;;;;;0.70;0.60;;;;;;;;;;7301645;19;140408;-76
2023/09/22 04:36:57;;;;;;;1.13;0.80;;;;;;;;;;7300281;19;140760;-77
2023/09/22 04:39:24;;;;;;;0.93;0.68;;;;;;;;;;7301258;19;142023;-77
2023/09/22 04:41:51;;;;;;;0.77;0.75;;;;;;;;;;7300337;19;140689;-68
2023/09/22 04:44:18;;;;;;;0.95;0.60;;;;;;;;;;7300293;19;140454;-68
2023/09/22 04:46:45;;;;;;;1.00;0.70;;;;;;;;;;7299810;19;142196;-68
2023/09/22 04:49:12;;;;;;;0.80;0.60;;;;;;;;;;7299713;19;142722;-70
2023/09/22 04:51:46;;;;;;;0.85;0.70;;;;;;;;;;7301159;19;140578;-71
2023/09/22 04:54:14;;;;;;;0.80;0.60;;;;;;;;;;7300007;19;140625;-69
2023/09/22 04:56:41;;;;;;;0.75;0.60;;;;;;;;;;7295821;19;141023;-69
2023/09/22 04:59:09;;;;;;;0.80;0.70;;;;;;;;;;7295271;19;142051;-68
2023/09/22 05:01:38;;;;;;;0.90;0.60;;;;;;;;;;7293120;19;140870;-67
2023/09/22 05:04:05;;;;;;;1.65;0.70;;;;;;;;;;7294638;19;140913;-69
2023/09/22 05:06:32;;;;;;;0.77;0.60;;;;;;;;;;7295216;19;140930;-69
2023/09/22 05:09:03;;;;;;;1.00;0.53;;;;;;;;;;7294315;19;141907;-74
2023/09/22 05:11:30;;;;;;;0.82;0.60;;;;;;;;;;7304361;19;141002;-74
2023/09/22 05:13:57;;;;;;;0.88;0.50;;;;;;;;;;7300377;19;140942;-74
2023/09/22 05:16:24;;;;;;;1.10;0.60;;;;;;;;;;7299730;19;142279;-75
2023/09/22 05:18:52;;;;;;;0.60;0.50;;;;;;;;;;7299256;19;142733;-72
2023/09/22 05:21:18;;;;;;;0.93;0.60;;;;;;;;;;7300327;19;140520;-74
2023/09/22 05:23:46;;;;;;;0.60;0.60;;;;;;;;;;7300054;19;140722;-74
2023/09/22 05:26:13;;;;;;;1.33;0.60;;;;;;;;;;7296092;19;141656;-73
2023/09/22 05:28:40;;;;;;;0.65;0.50;;;;;;;;;;7298390;19;142052;-74
2023/09/22 05:31:08;;;;;;;0.95;0.70;;;;;;;;;;7299327;19;141001;-74
2023/09/22 05:33:40;;;;;;;0.82;0.68;;;;;;;;;;7299745;19;140851;-74
2023/09/22 05:36:07;;;;;;;0.90;0.50;;;;;;;;;;7299567;19;140975;-75
2023/09/22 05:38:35;;;;;;;0.77;0.60;;;;;;;;;;7299393;19;141882;-75
2023/09/22 05:41:03;;;;;;;0.88;0.52;;;;;;;;;;7297486;19;140831;-74
2023/09/22 05:43:32;;;;;;;1.40;0.70;;;;;;;;;;7299488;19;140645;-74
2023/09/22 05:45:59;;;;;;;0.70;0.60;;;;;;;;;;7299086;19;140837;-75
2023/09/22 05:48:26;;;;;;;1.42;0.70;;;;;;;;;;7297472;19;140689;-74
2023/09/22 05:50:57;;;;;;;0.57;0.53;;;;;;;;;;7299199;19;140378;-74
2023/09/22 05:53:27;;;;;;;0.90;0.60;;;;;;;;;;7298601;19;140496;-74
2023/09/22 05:56:06;;;;;;;0.52;0.50;;;;;;;;;;7297141;19;141137;-74
2023/09/22 05:58:33;;;;;;;0.80;0.60;;;;;;;;;;7298651;19;141751;-74
2023/09/22 06:01:07;;;;;;;1.00;0.50;;;;;;;;;;7298817;19;140565;-74
2023/09/22 06:03:35;;;;;;;0.85;0.50;;;;;;;;;;7298620;19;140667;-74
2023/09/22 06:06:12;;;;;;;0.88;0.40;;;;;;;;;;7298685;19;140896;-74
2023/09/22 06:08:40;;;;;;;1.03;0.40;;;;;;;;;;7296284;19;142054;-73
2023/09/22 06:11:08;;;;;;;1.50;0.55;;;;;;;;;;7298073;19;140670;-74
2023/09/22 06:13:35;;;;;;;1.17;0.47;;;;;;;;;;7298090;19;141130;-73
2023/09/22 06:16:02;;;;;;;1.07;0.57;;;;;;;;;;7297981;19;141740;-74
2023/09/22 06:18:30;;;;;;;0.93;0.50;;;;;;;;;;7297445;19;142028;-74
2023/09/22 06:20:59;;;;;;;0.90;0.50;;;;;;;;;;7297362;19;140553;-73
2023/09/22 06:23:27;;;;;;;0.70;0.60;;;;;;;;;;7297932;19;140705;-73
2023/09/22 06:26:00;;;;;;;0.77;0.40;;;;;;;;;;7295449;19;141699;-74
2023/09/22 06:28:27;;;;;;;0.90;0.40;;;;;;;;;;7297465;19;142185;-74
2023/09/22 06:30:58;;;;;;;0.90;0.43;;;;;;;;;;7298246;19;140761;-74
2023/09/22 06:33:27;;;;;;;0.70;0.43;;;;;;;;;;7297532;19;140826;-74
2023/09/22 06:35:57;;;;;;;0.90;0.50;;;;;;;;;;7296841;19;140877;-74
2023/09/22 06:38:24;;;;;;;0.70;0.50;;;;;;;;;;7296656;19;141288;-73
2023/09/22 06:40:55;;;;;;;0.68;0.38;;;;;;;;;;7296980;19;140659;-74
2023/09/22 06:43:25;;;;;;;0.90;0.60;;;;;;;;;;7297256;19;140385;-74
2023/09/22 06:45:53;;;;;;;0.60;0.47;;;;;;;;;;7297529;19;140953;-73
2023/09/22 06:48:27;;;;;;;0.40;0.40;;;;;;;;;;7296040;19;141787;-74
2023/09/22 06:50:57;;;;;;;0.80;0.50;;;;;;;;;;7297515;19;140406;-75
2023/09/22 06:53:26;;;;;;;0.40;0.37;;;;;;;;;;7297219;19;140670;-75
2023/09/22 06:56:11;;;;;;;0.55;0.40;;;;;;;;;;7294558;19;142035;-75
2023/09/22 06:58:40;;;;;;;0.90;0.50;;;;;;;;;;7296748;19;141933;-75
2023/09/22 07:01:11;;;;;;;0.60;0.40;;;;;;;;;;7293625;19;142467;-75
2023/09/22 07:03:39;;;;;;;0.70;0.40;;;;;;;;;;7295205;19;140793;-76
2023/09/22 07:06:09;;;;;;;0.40;0.40;;;;;;;;;;7296423;19;141638;-73
2023/09/22 07:08:43;;;;;;;0.68;0.40;;;;;;;;;;7295262;19;141784;-73
2023/09/22 07:11:11;;;;;;;0.50;0.50;;;;;;;;;;7294559;19;140653;-72
2023/09/22 07:13:40;;;;;;;2.27;0.60;;;;;;;;;;7296576;19;140993;-75
2023/09/22 07:16:08;;;;;;;0.90;0.50;;;;;;;;;;7296012;19;141308;-72
2023/09/22 07:18:36;;;;;;;1.02;0.55;;;;;;;;;;7295442;19;140834;-75
2023/09/22 07:21:06;;;;;;;3.00;0.70;;;;;;;;;;7295304;19;140615;-74
2023/09/22 07:23:33;;;;;;;1.65;0.77;;;;;;;;;;7296681;19;140848;-75
2023/09/22 07:26:03;;;;;;;1.92;0.80;;;;;;;;;;7300969;19;141011;-75
2023/09/22 07:28:31;;;;;;;2.42;1.10;;;;;;;;;;7303488;19;140903;-75
2023/09/22 07:30:58;;;;;;;2.63;0.90;;;;;;;;;;7303600;19;140824;-75
2023/09/22 07:33:32;;;;;;;2.47;0.77;;;;;;;;;;7301731;19;140980;-75
2023/09/22 07:35:59;;;;;;;2.10;0.90;;;;;;;;;;7303301;19;141967;-76
2023/09/22 07:38:30;;;;;;;2.70;0.90;;;;;;;;;;7300901;19;141450;-76
2023/09/22 07:40:58;;;;;;;3.13;0.80;;;;;;;;;;7303336;19;140623;-76
2023/09/22 07:43:29;;;;;;;3.35;0.93;;;;;;;;;;7302432;19;140669;-77
2023/09/22 07:45:57;;;;;;;2.87;1.00;;;;;;;;;;7302894;19;140721;-77
2023/09/22 07:48:24;;;;;;;4.38;1.10;;;;;;;;;;7302589;19;142677;-76
2023/09/22 07:50:54;;;;;;;3.47;0.98;;;;;;;;;;7303256;19;140489;-76
2023/09/22 07:53:25;;;;;;;3.65;0.98;;;;;;;;;;7302510;19;141003;-76
2023/09/22 07:55:55;;;;;;;2.08;0.95;;;;;;;;;;7303244;19;141558;-76
2023/09/22 07:58:22;;;;;;;2.38;0.93;;;;;;;;;;7301390;19;140947;-76
2023/09/22 08:00:52;;;;;;;2.80;1.10;;;;;;;;;;7302443;19;140675;-76
2023/09/22 08:03:20;;;;;;;2.65;1.00;;;;;;;;;;7301769;19;140625;-76
2023/09/22 08:05:50;;;;;;;2.70;0.93;;;;;;;;;;7300461;19;142571;-77
2023/09/22 08:08:17;;;;;;;2.27;1.00;;;;;;;;;;7302046;19;142519;-76
2023/09/22 08:10:44;;;;;;;2.35;0.90;;;;;;;;;;7302513;19;140918;-77
2023/09/22 08:13:11;;;;;;;3.15;0.95;;;;;;;;;;7300587;19;140437;-77
2023/09/22 08:15:39;;;;;;;2.60;0.98;;;;;;;;;;7301950;19;141594;-76
2023/09/22 08:18:07;;;;;;;1.38;0.80;;;;;;;;;;7302057;19;141781;-77
2023/09/22 08:20:35;;;;;;;2.72;1.02;;;;;;;;;;7301849;19;140498;-77
2023/09/22 08:23:02;;;;;;;2.58;0.90;;;;;;;;;;7301398;19;140439;-75
2023/09/22 08:25:29;;;;;;;2.38;0.80;;;;;;;;;;7301220;19;141965;-75
2023/09/22 08:27:58;;;;;;;2.05;0.90;;;;;;;;;;7298953;19;142771;-77
2023/09/22 08:30:25;;;;;;;2.25;0.90;;;;;;;;;;7299314;19;141139;-76
2023/09/22 08:32:53;;;;;;;3.13;1.13;;;;;;;;;;7300633;19;140427;-74
2023/09/22 08:35:21;;;;;;;2.63;1.10;;;;;;;;;;7298320;19;140635;-73
2023/09/22 08:37:49;;;;;;;3.45;1.08;;;;;;;;;;7300418;19;143046;-75
2023/09/22 08:40:16;;;;;;;2.03;0.90;;;;;;;;;;7298877;19;140975;-75
2023/09/22 08:42:45;;;;;;;1.92;0.93;;;;;;;;;;7298737;19;140955;-78
2023/09/22 08:45:13;;;;;;;3.72;1.00;;;;;;;;;;7300557;19;141277;-77
2023/09/22 08:47:42;;;;;;;4.43;1.10;;;;;;;;;;7300509;19;142166;-75
2023/09/22 08:50:13;;;;;;;4.88;1.00;;;;;;;;;;7300631;19;141166;-77
2023/09/22 08:52:42;;;;;;;3.72;0.80;;;;;;;;;;7299809;19;140721;-77
2023/09/22 08:55:13;;;;;;;2.37;0.80;;;;;;;;;;7298581;19;142602;-77
2023/09/22 08:57:44;;;;;;;2.57;0.93;;;;;;;;;;7298646;19;142746;-77
2023/09/22 09:00:18;;;;;;;2.78;0.90;;;;;;;;;;7300907;19;140619;-78
2023/09/22 09:02:50;;;;;;;3.33;1.00;;;;;;;;;;7298583;19;140734;-78
2023/09/22 09:05:19;;;;;;;1.83;0.80;;;;;;;;;;7298583;19;141054;-77
2023/09/22 09:07:47;;;;;;;1.88;0.90;;;;;;;;;;7298447;19;142069;-77
2023/09/22 09:10:27;;;;;;;2.67;0.90;;;;;;;;;;7299793;19;140630;-77
2023/09/22 09:12:55;;;;;;;2.77;0.90;;;;;;;;;;7299408;19;140769;-76
2023/09/22 09:15:28;;;;;;;2.10;0.80;;;;;;;;;;7298566;19;140858;-75
2023/09/22 09:18:06;;;;;;;2.10;0.80;;;;;;;;;;7297332;19;142019;-77
2023/09/22 09:20:34;;;;;;;3.05;1.00;;;;;;;;;;7298092;19;140738;-78
2023/09/22 09:23:31;;;;;;;2.50;0.83;;;;;;;;;;7298854;19;140753;-78
2023/09/22 09:25:58;;;;;;;1.90;0.88;;;;;;;;;;7296211;19;140528;-76
2023/09/22 09:28:26;;;;;;;2.83;0.90;;;;;;;;;;7296578;19;141493;-80
2023/09/22 09:30:54;;;;;;;2.92;0.90;;;;;;;;;;7298320;19;140962;-75
2023/09/22 09:33:22;;;;;;;3.57;0.90;;;;;;;;;;7299666;19;140720;-76
2023/09/22 09:35:50;;;;;;;2.00;0.90;;;;;;;;;;7299709;19;141948;-76
2023/09/22 09:38:23;;;;;;;2.35;0.93;;;;;;;;;;7298839;19;141433;-76
2023/09/22 09:40:50;;;;;;;3.25;1.10;;;;;;;;;;7299384;19;140659;-76
2023/09/22 09:43:17;;;;;;;4.35;1.02;;;;;;;;;;7298680;19;140581;-76
2023/09/22 09:45:49;;;;;;;2.57;0.87;;;;;;;;;;7297972;19;141164;-76
2023/09/22 09:48:17;;;;;;;3.15;1.00;;;;;;;;;;7297652;19;142027;-76
2023/09/22 09:50:48;;;;;;;4.13;1.10;;;;;;;;;;7298662;19;140744;-76
2023/09/22 09:53:36;;;;;;;2.95;1.02;;;;;;;;;;7298549;19;140828;-76
2023/09/22 09:56:05;;;;;;;2.85;1.00;;;;;;;;;;7297921;19;140713;-76
2023/09/22 09:58:34;;;;;;;4.05;1.00;;;;;;;;;;7297301;19;142524;-76
2023/09/22 10:01:05;;;;;;;3.00;1.00;;;;;;;;;;7299017;19;140559;-76
2023/09/22 10:03:33;;;;;;;3.40;1.00;;;;;;;;;;7297910;19;141861;-76
2023/09/22 10:06:02;;;;;;;2.78;0.90;;;;;;;;;;7298293;19;141815;-76
2023/09/22 10:08:29;;;;;;;2.90;1.10;;;;;;;;;;7298037;19;140936;-76
2023/09/22 10:10:59;;;;;;;3.67;1.10;;;;;;;;;;7298431;19;140548;-76
2023/09/22 10:13:26;;;;;;;2.75;0.93;;;;;;;;;;7297394;19;140631;-76
2023/09/22 10:16:03;;;;;;;2.38;0.90;;;;;;;;;;7297782;19;142002;-77
2023/09/22 10:18:45;;;;;;;2.83;1.20;;;;;;;;;;7295339;19;141959;-77
2023/09/22 10:21:30;;;;;;;6.07;1.30;;;;;;;;;;7298136;19;140782;-77
2023/09/22 10:24:13;;;;;;;11.10;1.90;;;;;;;;;;7296336;19;140798;-77
2023/09/22 10:26:56;;;;;;;16.52;2.22;;;;;;;;;;7297240;19;141681;-77
2023/09/22 10:29:33;;;;;;;13.65;2.00;;;;;;;;;;7297925;19;141143;-77
2023/09/22 10:32:19;;;;;;;12.85;1.83;;;;;;;;;;7298155;19;140606;-77
2023/09/22 10:34:52;;;;;;;14.20;2.40;;;;;;;;;;7297544;19;140475;-77
2023/09/22 10:37:20;;;;;;;9.27;2.03;;;;;;;;;;7297673;19;140573;-77
2023/09/22 10:39:51;;;;;;;9.10;1.90;;;;;;;;;;7297624;19;142418;-77
2023/09/22 10:42:19;;;;;;;11.70;1.95;;;;;;;;;;7295142;19;140750;-76
2023/09/22 10:44:58;;;;;;;9.70;1.90;;;;;;;;;;7297016;19;140671;-77
2023/09/22 10:47:40;;;;;;;13.87;2.30;;;;;;;;;;7296952;19;142002;-76
2023/09/22 10:50:24;;;;;;;12.90;2.47;;;;;;;;;;7297502;19;141147;-76
2023/09/22 10:52:53;;;;;;;10.95;2.22;;;;;;;;;;7298098;19;140800;-75
2023/09/22 10:55:31;;;;;;;10.65;2.35;;;;;;;;;;7297422;19;141112;-77
2023/09/22 10:57:59;;;;;;;10.50;2.00;;;;;;;;;;7296914;19;140668;-77
2023/09/22 11:00:26;;;;;;;10.63;2.23;;;;;;;;;;7301120;19;141149;-76
2023/09/22 11:02:54;;;;;;;14.60;2.08;;;;;;;;;;7304573;19;140642;-77
2023/09/22 11:05:23;;;;;;;11.17;2.23;;;;;;;;;;7303058;19;140595;-76
2023/09/22 11:07:51;;;;;;;11.50;2.13;;;;;;;;;;7304411;19;140957;-77
2023/09/22 11:10:22;;;;;;;11.43;2.20;;;;;;;;;;7302756;19;140723;-75
2023/09/22 11:12:51;;;;;;;8.82;2.00;;;;;;;;;;7303836;19;140800;-77
2023/09/22 11:15:19;;;;;;;12.02;2.15;;;;;;;;;;7304706;19;140631;-77
2023/09/22 11:17:48;;;;;;;7.88;1.77;;;;;;;;;;7303552;19;142215;-76
2023/09/22 11:20:22;;;;;;;9.88;2.08;;;;;;;;;;7302117;19;142060;-75
2023/09/22 11:22:52;;;;;;;12.13;1.90;;;;;;;;;;7305173;19;140820;-76
2023/09/22 11:25:21;;;;;;;12.32;1.98;;;;;;;;;;7302719;19;140815;-76
2023/09/22 11:27:49;;;;;;;11.82;2.05;;;;;;;;;;7302316;19;141581;-77
2023/09/22 11:30:19;;;;;;;7.88;1.95;;;;;;;;;;7303676;19;140806;-77
2023/09/22 11:32:47;;;;;;;7.65;2.10;;;;;;;;;;7304165;19;141032;-77
2023/09/22 11:35:47;;;;;;;8.55;2.05;;;;;;;;;;7303997;19;140911;-76
2023/09/22 11:38:27;;;;;;;9.03;1.90;;;;;;;;;;7300931;19;141911;-76
2023/09/22 11:41:08;;;;;;;9.83;1.93;;;;;;;;;;7302135;19;142829;-76
2023/09/22 11:43:36;;;;;;;6.78;1.83;;;;;;;;;;7301917;19;140959;-77
2023/09/22 11:46:13;;;;;;;5.67;1.70;;;;;;;;;;7303825;19;140746;-75
2023/09/22 11:48:56;;;;;;;6.40;1.65;;;;;;;;;;7312264;19;141916;-77
2023/09/22 11:51:42;;;;;;;7.15;1.70;;;;;;;;;;7303380;19;142817;-77
2023/09/22 11:54:13;;;;;;;5.68;1.70;;;;;;;;;;7301865;19;140604;-77
2023/09/22 11:56:44;;;;;;;9.93;1.97;;;;;;;;;;7301893;19;140532;-77
2023/09/22 11:59:19;;;;;;;9.93;2.50;;;;;;;;;;7300326;19;140530;-77
2023/09/22 12:01:48;;;;;;;8.73;4.32;;;;;;;;;;7301828;19;141295;-77
2023/09/22 12:04:16;;;;;;;25.20;21.35;;;;;;;;;;7303167;19;140678;-75
2023/09/22 12:06:43;;;;;;;33.80;28.20;;;;;;;;;;7300500;19;140511;-76
2023/09/22 12:09:12;;;;;;;133.13;118.90;;;;;;;;;;7300997;19;141012;-75
2023/09/22 12:11:41;;;;;;;830.00;521.43;;;;;;;;;;7301252;19;142492;-76
2023/09/22 12:14:09;;;;;;;494.63;322.90;;;;;;;;;;7301520;19;140969;-75
2023/09/22 12:16:40;;;;;;;445.85;294.88;;;;;;;;;;7301884;19;140538;-76
2023/09/22 12:19:09;;;;;;;435.58;296.48;;;;;;;;;;7300774;19;140621;-75
2023/09/22 12:21:36;;;;;;;415.83;286.03;;;;;;;;;;7301357;19;142163;-75
2023/09/22 12:24:04;;;;;;;422.92;293.80;;;;;;;;;;7301384;19;140800;-75
2023/09/22 12:26:31;;;;;;;411.27;283.63;;;;;;;;;;7299624;19;140753;-77
2023/09/22 12:29:04;;;;;;;420.63;318.42;;;;;;;;;;7301421;19;142341;-78
2023/09/22 12:31:31;;;;;;;387.83;292.48;;;;;;;;;;7301612;19;143054;-75
2023/09/22 12:33:59;;;;;;;403.30;301.75;;;;;;;;;;7301807;19;140931;-77
2023/09/22 12:36:26;;;;;;;378.60;286.48;;;;;;;;;;7301840;19;140559;-75
2023/09/22 12:38:54;;;;;;;371.40;279.67;;;;;;;;;;7301439;19;140856;-75
2023/09/22 12:41:22;;;;;;;363.50;274.85;;;;;;;;;;7300979;19;142806;-76
2023/09/22 12:43:49;;;;;;;349.10;265.40;;;;;;;;;;7298735;19;140734;-76
2023/09/22 12:46:16;;;;;;;343.08;260.20;;;;;;;;;;7301350;19;140644;-76
2023/09/22 12:48:43;;;;;;;336.47;259.47;;;;;;;;;;7300550;19;141311;-76
2023/09/22 12:51:11;;;;;;;330.02;247.93;;;;;;;;;;7301199;19;142937;-76
2023/09/22 12:53:39;;;;;;;324.42;246.32;;;;;;;;;;7301498;19;140491;-76
2023/09/22 12:56:06;;;;;;;311.45;240.07;;;;;;;;;;7301219;19;140938;-76
2023/09/22 12:58:34;;;;;;;295.30;223.40;;;;;;;;;;7300807;19;142558;-76
2023/09/22 13:01:05;;;;;;;296.95;223.30;;;;;;;;;;7300523;19;141277;-78
2023/09/22 13:03:33;;;;;;;289.50;219.50;;;;;;;;;;7301530;19;140774;-78
2023/09/22 13:06:03;;;;;;;277.47;212.23;;;;;;;;;;7298841;19;140843;-77
2023/09/22 13:08:32;;;;;;;273.17;205.73;;;;;;;;;;7297873;19;141583;-75
2023/09/22 13:11:00;;;;;;;254.25;189.25;;;;;;;;;;7298640;19;141279;-76
2023/09/22 13:13:28;;;;;;;250.67;181.33;;;;;;;;;;7300519;19;140701;-81
2023/09/22 13:15:56;;;;;;;243.53;177.47;;;;;;;;;;7297298;19;140788;-77
2023/09/22 13:18:23;;;;;;;232.02;164.23;;;;;;;;;;7297720;19;140912;-79
2023/09/22 13:20:50;;;;;;;228.65;164.60;;;;;;;;;;7299028;19;142421;-79
2023/09/22 13:23:17;;;;;;;224.82;160.63;;;;;;;;;;7296531;19;140615;-78
2023/09/22 13:25:45;;;;;;;215.65;156.35;;;;;;;;;;7299386;19;141382;-75
2023/09/22 13:28:13;;;;;;;224.40;161.82;;;;;;;;;;7298349;19;140983;-76
2023/09/22 13:30:44;;;;;;;212.77;153.60;;;;;;;;;;7298903;19;142443;-77
2023/09/22 13:33:12;;;;;;;194.07;142.05;;;;;;;;;;7299073;19;140975;-76
2023/09/22 13:35:39;;;;;;;181.05;133.90;;;;;;;;;;7299824;19;141067;-78
2023/09/22 13:38:07;;;;;;;179.57;132.23;;;;;;;;;;7298365;19;140742;-75
2023/09/22 13:40:35;;;;;;;168.07;125.45;;;;;;;;;;7299487;19;141034;-79
2023/09/22 13:43:04;;;;;;;164.75;123.10;;;;;;;;;;7297517;19;140809;-76
2023/09/22 13:45:35;;;;;;;162.43;120.45;;;;;;;;;;7298870;19;142442;-75
2023/09/22 13:48:05;;;;;;;155.15;116.40;;;;;;;;;;7297835;19;140787;-74
2023/09/22 13:50:32;;;;;;;151.40;114.73;;;;;;;;;;7297939;19;142258;-76
2023/09/22 13:53:00;;;;;;;147.85;111.63;;;;;;;;;;7299805;19;140548;-76
2023/09/22 13:55:27;;;;;;;144.30;109.18;;;;;;;;;;7300000;19;141028;-76
2023/09/22 13:57:55;;;;;;;143.63;108.35;;;;;;;;;;7300525;19;140658;-77
2023/09/22 14:00:22;;;;;;;140.75;107.18;;;;;;;;;;7298695;19;141576;-76
2023/09/22 14:02:50;;;;;;;133.23;103.43;;;;;;;;;;7297995;19;141159;-75
2023/09/22 14:05:17;;;;;;;135.07;102.43;;;;;;;;;;7298243;19;142029;-75
2023/09/22 14:07:45;;;;;;;123.72;99.43;;;;;;;;;;7298719;19;141556;-77
2023/09/22 14:10:14;;;;;;;125.17;98.67;;;;;;;;;;7298356;19;142648;-80
2023/09/22 14:12:41;;;;;;;122.83;96.40;;;;;;;;;;7296169;19;140915;-74
2023/09/22 14:15:08;;;;;;;124.40;96.40;;;;;;;;;;7297029;19;140732;-75
2023/09/22 14:17:37;;;;;;;116.80;92.33;;;;;;;;;;7298894;19;140942;-76
2023/09/22 14:20:05;;;;;;;117.15;91.40;;;;;;;;;;7298077;19;142839;-77
2023/09/22 14:22:32;;;;;;;109.72;88.72;;;;;;;;;;7296048;19;140937;-76
2023/09/22 14:25:03;;;;;;;110.30;85.90;;;;;;;;;;7292795;19;142146;-78
2023/09/22 14:27:31;;;;;;;106.23;84.37;;;;;;;;;;7296207;19;142795;-78
2023/09/22 14:30:01;;;;;;;108.30;84.68;;;;;;;;;;7296115;19;141320;-78
2023/09/22 14:32:28;;;;;;;101.07;81.75;;;;;;;;;;7296258;19;140697;-78